DRRI weather

Bilma Airport
Bilma, Agadez Region, Niger

Public forecast

Using degrees Celsius for public forecast. Weather courtesy of forecast.io.

METAR (pilot weather report)

Closest report is Mano Dayak International Airport, 299.5 nm (554.7 km) WSW. Retrieved 2019/04/20 10:00 UTC (41 minutes ago):

DRZA 201000Z 10016KT CAVOK 36/05 Q1015

TAF (pilot weather forecast)

Closest forecast is Mano Dayak International Airport, 299.5 nm (554.7 km) WSW. Retrieved 2019/04/20 06:21 UTC (4 hours ago):

TAF DRZA 200500Z 2006/2106 08010KT 8000 NSC PROB30 TEMPO 2008/2014 12020KT 3500 BLDU